createdAt,value
2023-03-08T00:03:01.616Z,76.00
2023-03-08T00:08:03.733Z,76.20
2023-03-08T00:13:06.057Z,76.40
2023-03-08T00:18:10.191Z,76.50
2023-03-08T00:23:12.314Z,76.80
2023-03-08T00:28:14.453Z,76.90
2023-03-08T00:33:18.192Z,76.80
2023-03-08T00:38:20.305Z,76.90
2023-03-08T00:43:22.390Z,76.70
2023-03-08T00:48:26.455Z,77.10
2023-03-08T00:58:27.251Z,76.90
2023-03-08T01:03:29.546Z,77.70
2023-03-08T01:08:31.686Z,77.90
2023-03-08T01:13:36.036Z,78.30
2023-03-08T01:18:38.140Z,78.50
2023-03-08T01:23:42.471Z,78.10
2023-03-08T01:28:46.664Z,78.30
2023-03-08T01:33:49.802Z,78.20
2023-03-08T01:38:53.136Z,77.90
2023-03-08T01:43:56.941Z,77.60
2023-03-08T01:49:07.947Z,77.40
2023-03-08T01:54:13.678Z,78.00
2023-03-08T01:59:20.930Z,77.70
2023-03-08T02:04:23.098Z,77.60
2023-03-08T02:09:25.361Z,77.60
2023-03-08T02:14:29.042Z,77.70
2023-03-08T02:19:39.486Z,77.70
2023-03-08T02:24:43.312Z,78.20
2023-03-08T02:29:45.713Z,78.00
2023-03-08T02:34:47.825Z,77.70
2023-03-08T02:39:51.354Z,77.70
2023-03-08T02:44:53.578Z,78.00
2023-03-08T02:49:55.763Z,79.00
2023-03-08T02:54:59.390Z,77.90
2023-03-08T03:00:01.585Z,77.80
2023-03-08T03:05:04.789Z,77.80
2023-03-08T03:10:10.497Z,77.80
2023-03-08T03:15:13.061Z,78.10
2023-03-08T03:20:15.202Z,78.30
2023-03-08T03:25:18.861Z,78.50
2023-03-08T03:30:21.124Z,78.60
2023-03-08T03:35:23.186Z,78.30
2023-03-08T03:40:26.751Z,78.40
2023-03-08T03:45:28.925Z,78.50
2023-03-08T03:50:31.274Z,78.60
2023-03-08T03:55:34.829Z,78.90
2023-03-08T04:00:36.915Z,78.80
2023-03-08T04:05:39.646Z,78.80
2023-03-08T04:10:43.433Z,78.70
2023-03-08T04:15:45.568Z,78.90
2023-03-08T04:20:47.678Z,79.20
2023-03-08T04:25:51.220Z,79.40
2023-03-08T04:30:53.492Z,79.20
2023-03-08T04:35:55.647Z,79.20
2023-03-08T04:40:59.453Z,79.20
2023-03-08T04:46:02.453Z,79.30
2023-03-08T04:51:06.185Z,79.00
2023-03-08T04:56:10.008Z,79.10
2023-03-08T05:01:14.510Z,79.20
2023-03-08T05:06:16.939Z,79.50
2023-03-08T05:11:23.271Z,79.40
2023-03-08T05:16:26.572Z,79.60
2023-03-08T05:21:28.819Z,79.70
2023-03-08T05:26:32.586Z,79.80
2023-03-08T05:31:34.941Z,79.60
2023-03-08T05:36:37.246Z,79.40
2023-03-08T05:41:40.801Z,79.50
2023-03-08T05:46:42.973Z,79.70
2023-03-08T05:51:45.298Z,79.70
2023-03-08T05:56:48.826Z,80.00
2023-03-08T06:01:50.933Z,80.30
2023-03-08T06:06:53.484Z,80.20
2023-03-08T06:11:57.033Z,80.20
2023-03-08T06:16:59.401Z,80.30
2023-03-08T06:22:01.902Z,80.20
2023-03-08T06:27:05.793Z,80.30
2023-03-08T06:32:08.267Z,80.60
2023-03-08T06:37:10.724Z,80.70
2023-03-08T06:42:14.383Z,80.60
2023-03-08T06:47:16.470Z,80.20
2023-03-08T06:52:18.707Z,80.30
2023-03-08T06:57:22.196Z,80.40
2023-03-08T07:02:24.323Z,80.10
2023-03-08T07:07:26.502Z,79.70
2023-03-08T07:12:30.521Z,80.40
2023-03-08T07:17:32.684Z,80.30
2023-03-08T07:22:34.933Z,80.10
2023-03-08T07:27:38.722Z,80.20
2023-03-08T07:32:41.929Z,80.30
2023-03-08T07:37:45.471Z,79.70
2023-03-08T07:42:49.765Z,79.60
2023-03-08T07:47:51.975Z,80.10
2023-03-08T07:52:54.084Z,80.40
2023-03-08T07:57:57.627Z,80.30
2023-03-08T08:02:59.998Z,80.30
2023-03-08T08:08:02.168Z,80.30
2023-03-08T08:13:05.763Z,80.20
2023-03-08T08:18:08.064Z,79.80
2023-03-08T08:23:10.170Z,79.60
2023-03-08T08:28:13.774Z,78.90
2023-03-08T08:33:16.027Z,78.00
2023-03-08T08:38:18.318Z,77.30
2023-03-08T08:43:21.998Z,77.10
2023-03-08T08:48:24.724Z,76.90
2023-03-08T08:53:27.593Z,77.40
2023-03-08T08:58:31.121Z,77.60
2023-03-08T09:03:33.389Z,77.20
2023-03-08T09:08:35.544Z,76.80
2023-03-08T09:13:39.132Z,76.50
2023-03-08T09:18:41.315Z,76.70
2023-03-08T09:23:44.348Z,77.10
2023-03-08T09:28:47.987Z,77.70
2023-03-08T09:33:51.927Z,77.70
2023-03-08T09:38:54.655Z,77.00
2023-03-08T09:44:11.397Z,76.70
2023-03-08T09:49:19.566Z,76.90
2023-03-08T09:54:24.441Z,75.90
2023-03-08T09:59:34.692Z,76.20
2023-03-08T10:04:47.578Z,76.40
2023-03-08T10:10:00.893Z,76.40
2023-03-08T10:15:11.090Z,76.30
2023-03-08T10:20:20.502Z,77.00
2023-03-08T10:25:25.019Z,77.40
2023-03-08T10:30:38.658Z,77.10
2023-03-08T10:35:54.971Z,76.40
2023-03-08T10:41:02.747Z,75.80
2023-03-08T10:46:11.642Z,74.80
2023-03-08T10:51:18.638Z,75.10
2023-03-08T10:56:26.184Z,73.50
2023-03-08T11:01:31.451Z,72.70
2023-03-08T11:06:34.789Z,71.40
2023-03-08T11:11:42.957Z,71.70
2023-03-08T11:17:13.060Z,71.90
2023-03-08T11:22:27.437Z,67.30
2023-03-08T11:27:45.658Z,67.10
2023-03-08T11:33:02.748Z,66.50
2023-03-08T11:38:17.908Z,64.90
2023-03-08T11:43:39.578Z,65.60
2023-03-08T11:49:03.065Z,66.40
2023-03-08T11:54:15.963Z,66.20
2023-03-08T11:59:24.755Z,66.20
2023-03-08T12:04:34.227Z,64.20
2023-03-08T12:09:41.780Z,59.90
2023-03-08T12:14:52.738Z,63.60
2023-03-08T12:19:56.338Z,62.60
2023-03-08T12:25:07.094Z,64.60
2023-03-08T12:30:20.434Z,59.60
2023-03-08T12:35:30.454Z,60.70
2023-03-08T12:40:44.669Z,62.50
2023-03-08T12:46:04.554Z,60.60
2023-03-08T12:51:22.107Z,58.60
2023-03-08T12:56:29.949Z,59.70
2023-03-08T13:01:37.559Z,60.00
2023-03-08T13:13:23.914Z,58.40
2023-03-08T13:18:32.563Z,59.30
2023-03-08T13:23:40.556Z,62.20
2023-03-08T13:29:00.694Z,61.30
2023-03-08T13:34:03.326Z,62.40
2023-03-08T13:39:08.194Z,62.70
2023-03-08T13:44:17.744Z,63.30
2023-03-08T13:49:32.610Z,60.00
2023-03-08T13:54:37.605Z,61.40
2023-03-08T13:59:49.020Z,61.20
2023-03-08T14:05:17.391Z,59.60
2023-03-08T14:10:21.032Z,59.70
2023-03-08T14:15:27.253Z,62.60
2023-03-08T14:21:05.626Z,62.20
2023-03-08T14:26:28.506Z,60.40
2023-03-08T14:31:40.973Z,59.10
2023-03-08T14:36:51.868Z,60.90
2023-03-08T14:41:55.727Z,61.40
2023-03-08T14:47:08.519Z,62.70
2023-03-08T14:52:20.716Z,62.10
2023-03-08T14:57:24.762Z,62.70
2023-03-08T15:02:28.527Z,62.50
2023-03-08T15:07:34.638Z,63.70
2023-03-08T15:12:36.806Z,65.00
2023-03-08T15:17:40.412Z,64.80
2023-03-08T15:22:46.885Z,64.70
2023-03-08T15:27:49.916Z,65.30
2023-03-08T15:32:54.195Z,65.80
2023-03-08T15:37:56.553Z,65.90
2023-03-08T15:42:58.764Z,65.80
2023-03-08T15:48:04.084Z,65.70
2023-03-08T15:53:07.103Z,65.20
2023-03-08T15:58:11.131Z,66.20
2023-03-08T16:03:15.891Z,66.40
2023-03-08T16:08:17.973Z,65.60
2023-03-08T16:13:20.122Z,65.80
2023-03-08T16:18:23.647Z,66.50
2023-03-08T16:23:26.182Z,66.60
2023-03-08T16:28:28.462Z,67.40
2023-03-08T16:33:32.175Z,66.70
2023-03-08T16:38:34.507Z,66.90
2023-03-08T16:43:45.612Z,66.90
2023-03-08T16:48:51.409Z,66.70
2023-03-08T16:53:54.335Z,66.90
2023-03-08T16:58:58.992Z,67.10
2023-03-08T17:04:02.549Z,67.40
2023-03-08T17:09:05.144Z,67.70
2023-03-08T17:14:10.873Z,68.00
2023-03-08T17:19:14.489Z,68.20
2023-03-08T17:24:16.891Z,68.30
2023-03-08T17:29:19.189Z,68.60
2023-03-08T17:34:22.804Z,69.30
2023-03-08T17:39:24.980Z,69.30
2023-03-08T17:44:27.176Z,69.30
2023-03-08T17:49:30.926Z,69.70
2023-03-08T17:54:33.030Z,69.60
2023-03-08T17:59:35.226Z,69.70
2023-03-08T18:04:42.245Z,69.80
2023-03-08T18:09:46.439Z,70.10
2023-03-08T18:14:48.513Z,70.30
2023-03-08T18:19:52.066Z,70.10
2023-03-08T18:24:54.212Z,70.60
2023-03-08T18:29:56.377Z,70.80
2023-03-08T18:34:59.843Z,70.60
2023-03-08T18:40:02.614Z,70.80
2023-03-08T18:45:05.699Z,71.20
2023-03-08T18:50:11.227Z,71.20
2023-03-08T18:55:13.383Z,71.50
2023-03-08T19:00:16.896Z,71.50
2023-03-08T19:05:20.498Z,71.30
2023-03-08T19:10:22.698Z,71.40
2023-03-08T19:15:24.897Z,71.30
2023-03-08T19:20:28.427Z,71.90
2023-03-08T19:25:31.592Z,72.10
2023-03-08T19:30:35.825Z,72.70
2023-03-08T19:35:39.450Z,73.30
2023-03-08T19:40:43.809Z,72.80
2023-03-08T19:45:48.981Z,73.00
2023-03-08T19:50:52.603Z,73.10
2023-03-08T19:55:56.023Z,72.80
2023-03-08T20:01:03.366Z,73.00
2023-03-08T20:06:07.913Z,72.80
2023-03-08T20:11:10.155Z,72.80
2023-03-08T20:16:12.818Z,73.00
2023-03-08T20:21:16.987Z,73.10
2023-03-08T20:26:19.111Z,73.10
2023-03-08T20:31:23.236Z,73.10
2023-03-08T20:36:27.320Z,72.60
2023-03-08T20:41:29.841Z,72.50
2023-03-08T20:46:32.621Z,72.50
2023-03-08T20:51:39.113Z,72.70
2023-03-08T20:56:41.290Z,72.90
2023-03-08T21:01:47.105Z,73.00
2023-03-08T21:06:50.822Z,73.00
2023-03-08T21:11:53.027Z,73.10
2023-03-08T21:16:55.156Z,73.70
2023-03-08T21:21:58.845Z,73.80
2023-03-08T21:27:03.408Z,74.00
2023-03-08T21:32:06.482Z,75.20
2023-03-08T21:37:10.108Z,75.90
2023-03-08T21:42:12.319Z,75.70
2023-03-08T21:47:14.424Z,75.90
2023-03-08T21:52:18.027Z,75.60
2023-03-08T21:57:20.176Z,77.60
2023-03-08T22:02:22.348Z,77.80
2023-03-08T22:07:25.900Z,78.10
2023-03-08T22:12:28.107Z,77.30
2023-03-08T22:17:30.315Z,77.50
2023-03-08T22:22:33.918Z,78.90
2023-03-08T22:27:36.309Z,77.70
2023-03-08T22:32:38.621Z,76.80
2023-03-08T22:37:42.287Z,77.30
2023-03-08T22:42:44.482Z,77.60
2023-03-08T22:47:46.636Z,77.10
2023-03-08T22:52:50.160Z,76.80
2023-03-08T22:57:52.393Z,76.90
2023-03-08T23:02:57.025Z,76.40
2023-03-08T23:08:00.711Z,76.30
2023-03-08T23:13:03.089Z,77.40
2023-03-08T23:18:05.376Z,77.20
2023-03-08T23:23:09.028Z,77.00
2023-03-08T23:28:11.752Z,77.10
2023-03-08T23:33:13.963Z,77.00
2023-03-08T23:38:17.600Z,77.20
2023-03-08T23:43:19.941Z,76.80
2023-03-08T23:48:22.138Z,77.20
2023-03-08T23:53:25.817Z,77.10
2023-03-08T23:58:28.467Z,77.10
